Time;durP1;ratioP1;P1;durP2;ratioP2;P2;SDS_P1;SDS_P2;PMS_P1;PMS_P2;Temp;Humidity;BMP_temperature;BMP_pressure;BME280_temperature;BME280_humidity;BME280_pressure;Samples;Min_cycle;Max_cycle;Signal;HPM_P1;HPM_P2
2023/06/18 00:02:00;;;;;;;16.70;9.90;;;15.10;51.80;;;;;;5019169;28;20550;-59
2023/06/18 00:04:26;;;;;;;10.40;9.00;;;15.10;52.00;;;;;;5008500;28;20261;-59
2023/06/18 00:06:55;;;;;;;10.50;8.30;;;15.10;52.20;;;;;;5007036;28;21112;-53
2023/06/18 00:09:21;;;;;;;12.27;10.03;;;15.10;52.30;;;;;;5004241;28;20218;-52
2023/06/18 00:11:48;;;;;;;10.90;9.33;;;15.10;52.40;;;;;;4996475;28;20441;-57
2023/06/18 00:14:14;;;;;;;13.90;9.57;;;15.00;52.30;;;;;;5005608;28;20509;-56
2023/06/18 00:16:39;;;;;;;12.87;9.00;;;15.00;52.30;;;;;;5003927;28;20549;-57
2023/06/18 00:19:05;;;;;;;11.83;9.27;;;15.00;52.50;;;;;;5005734;28;21024;-57
2023/06/18 00:21:31;;;;;;;13.27;8.77;;;15.00;52.50;;;;;;5017004;28;20191;-57
2023/06/18 00:23:57;;;;;;;17.80;10.37;;;14.90;52.50;;;;;;5015663;28;20280;-55
2023/06/18 00:26:25;;;;;;;13.87;9.90;;;14.90;52.60;;;;;;5022350;28;20200;-55
2023/06/18 00:28:51;;;;;;;11.80;9.30;;;14.80;52.60;;;;;;5021891;28;21088;-57
2023/06/18 00:31:17;;;;;;;13.00;9.17;;;14.80;52.80;;;;;;5018984;28;20480;-56
2023/06/18 00:33:43;;;;;;;12.80;9.30;;;14.80;53.00;;;;;;5017193;28;20809;-57
2023/06/18 00:36:09;;;;;;;11.73;9.60;;;14.80;53.00;;;;;;5018614;28;20507;-57
2023/06/18 00:38:36;;;;;;;16.80;9.50;;;14.80;53.20;;;;;;5017557;28;20481;-55
2023/06/18 00:41:02;;;;;;;14.20;9.20;;;14.70;53.00;;;;;;5015333;28;20815;-56
2023/06/18 00:43:28;;;;;;;11.03;9.10;;;14.70;53.10;;;;;;5015430;28;20431;-61
2023/06/18 00:45:59;;;;;;;11.83;9.40;;;14.70;53.10;;;;;;5015332;28;20494;-57
2023/06/18 00:48:28;;;;;;;15.57;9.57;;;14.60;53.20;;;;;;5020726;28;20202;-57
2023/06/18 00:50:54;;;;;;;13.10;9.90;;;14.60;53.30;;;;;;5014851;28;20426;-55
2023/06/18 00:53:20;;;;;;;12.83;9.30;;;14.50;53.50;;;;;;5018967;28;20454;-55
2023/06/18 00:55:47;;;;;;;13.60;9.80;;;14.50;53.70;;;;;;5013904;28;20446;-55
2023/06/18 00:58:13;;;;;;;15.37;8.70;;;14.50;53.80;;;;;;5020372;28;20407;-56
2023/06/18 01:00:40;;;;;;;14.53;9.27;;;14.40;53.70;;;;;;5017409;28;20484;-56
2023/06/18 01:03:15;;;;;;;22.97;9.97;;;14.40;53.90;;;;;;5016562;28;20963;-54
2023/06/18 01:05:53;;;;;;;12.97;9.00;;;14.30;53.80;;;;;;5014079;28;20449;-54
2023/06/18 01:08:23;;;;;;;14.50;9.10;;;14.30;53.90;;;;;;5018186;28;21040;-55
2023/06/18 01:11:01;;;;;;;11.40;9.80;;;14.30;54.00;;;;;;5016855;28;20517;-56
2023/06/18 01:13:30;;;;;;;11.80;9.90;;;14.30;54.00;;;;;;5018892;28;20450;-57
2023/06/18 01:16:03;;;;;;;12.53;9.77;;;14.30;54.00;;;;;;5020980;28;21188;-56
2023/06/18 01:18:34;;;;;;;15.30;11.10;;;14.20;54.20;;;;;;5019553;28;20442;-55
2023/06/18 01:21:09;;;;;;;13.53;9.10;;;14.20;54.40;;;;;;5012739;28;20434;-57
2023/06/18 01:24:03;;;;;;;13.10;9.60;;;14.10;54.40;;;;;;5021771;28;20434;-57
2023/06/18 01:26:31;;;;;;;13.47;9.10;;;14.10;54.50;;;;;;5018854;28;20442;-57
2023/06/18 01:28:58;;;;;;;14.43;10.27;;;14.10;54.50;;;;;;5006984;28;20520;-56
2023/06/18 01:31:25;;;;;;;14.03;9.60;;;14.10;54.60;;;;;;5016697;28;20426;-55
2023/06/18 01:33:51;;;;;;;14.77;10.50;;;14.10;54.60;;;;;;5020413;28;20462;-59
2023/06/18 01:36:29;;;;;;;14.37;9.70;;;14.00;54.50;;;;;;5010030;28;20574;-58
2023/06/18 01:39:03;;;;;;;17.50;9.33;;;14.00;54.60;;;;;;5014651;28;20448;-57
2023/06/18 01:41:33;;;;;;;17.60;8.93;;;14.00;54.70;;;;;;5016866;28;20419;-56
2023/06/18 01:44:04;;;;;;;20.53;9.37;;;14.00;55.00;;;;;;5018843;28;20423;-61
2023/06/18 01:46:29;;;;;;;12.87;10.37;;;13.90;55.00;;;;;;5016658;28;20485;-55
2023/06/18 01:48:59;;;;;;;12.27;9.50;;;13.90;55.10;;;;;;5018309;28;20462;-58
2023/06/18 01:51:27;;;;;;;15.70;9.87;;;13.90;55.20;;;;;;5015567;28;20436;-58
2023/06/18 01:53:55;;;;;;;16.50;10.47;;;13.80;55.20;;;;;;5018960;28;20458;-57
2023/06/18 01:56:22;;;;;;;14.70;10.93;;;13.80;55.20;;;;;;5018178;28;20458;-56
2023/06/18 01:58:48;;;;;;;14.20;10.27;;;13.70;55.30;;;;;;5018686;28;21068;-56
2023/06/18 02:01:13;;;;;;;16.10;10.30;;;13.80;55.60;;;;;;5021592;28;20460;-58
2023/06/18 02:03:40;;;;;;;17.73;9.30;;;13.70;55.60;;;;;;5020723;28;20184;-55
2023/06/18 02:06:06;;;;;;;11.57;9.40;;;13.70;55.70;;;;;;5020851;28;20660;-57
2023/06/18 02:08:33;;;;;;;13.00;8.90;;;13.60;55.60;;;;;;5021300;28;20430;-55
2023/06/18 02:10:58;;;;;;;11.90;9.43;;;13.60;55.70;;;;;;5020622;28;20426;-58
2023/06/18 02:13:24;;;;;;;15.20;9.83;;;13.60;55.80;;;;;;5018324;28;20796;-56
2023/06/18 02:15:50;;;;;;;13.47;9.60;;;13.50;55.80;;;;;;5019789;28;20211;-56
2023/06/18 02:18:15;;;;;;;13.97;9.87;;;13.50;56.40;;;;;;5026516;28;20206;-56
2023/06/18 02:20:41;;;;;;;13.33;9.53;;;13.50;56.00;;;;;;5021094;28;20234;-56
2023/06/18 02:23:07;;;;;;;16.03;10.03;;;13.40;56.10;;;;;;5019593;28;20176;-55
2023/06/18 02:25:33;;;;;;;14.73;10.13;;;13.40;56.20;;;;;;5022579;28;20202;-54
2023/06/18 02:28:00;;;;;;;14.57;9.77;;;13.40;56.20;;;;;;5021507;28;20426;-56
2023/06/18 02:30:30;;;;;;;15.23;10.17;;;13.30;56.30;;;;;;5019132;28;20418;-57
2023/06/18 02:33:00;;;;;;;13.80;11.30;;;13.30;56.40;;;;;;5020782;28;20439;-56
2023/06/18 02:35:26;;;;;;;13.97;9.73;;;13.30;56.50;;;;;;5014890;28;20464;-54
2023/06/18 02:37:52;;;;;;;12.20;9.53;;;13.30;56.50;;;;;;5014522;28;20559;-56
2023/06/18 02:40:18;;;;;;;15.67;10.50;;;13.30;56.60;;;;;;5018715;28;20509;-53
2023/06/18 02:42:47;;;;;;;15.27;10.20;;;13.20;56.60;;;;;;5010815;28;20440;-56
2023/06/18 02:45:18;;;;;;;11.80;9.40;;;13.30;56.70;;;;;;5015166;28;20792;-55
2023/06/18 02:47:45;;;;;;;13.10;9.60;;;13.20;56.80;;;;;;5017932;28;20439;-56
2023/06/18 02:50:11;;;;;;;12.20;9.30;;;13.30;56.80;;;;;;5018865;28;20430;-55
2023/06/18 02:52:37;;;;;;;18.57;10.40;;;13.20;56.80;;;;;;5020664;28;20446;-55
2023/06/18 02:55:04;;;;;;;16.37;11.07;;;13.20;56.90;;;;;;5018363;28;20515;-54
2023/06/18 02:57:29;;;;;;;14.40;10.23;;;13.20;57.00;;;;;;5024489;28;20427;-55
2023/06/18 02:59:55;;;;;;;11.03;9.83;;;13.10;57.00;;;;;;5024347;28;20504;-58
2023/06/18 03:02:20;;;;;;;12.87;10.03;;;13.10;57.10;;;;;;5017644;28;20192;-58
2023/06/18 03:04:46;;;;;;;16.37;10.50;;;13.10;57.20;;;;;;5018395;28;20699;-57
2023/06/18 03:07:11;;;;;;;13.17;9.97;;;13.00;57.20;;;;;;5023262;28;20187;-56
2023/06/18 03:09:37;;;;;;;15.30;10.30;;;13.00;57.40;;;;;;5018229;28;20226;-55
2023/06/18 03:12:03;;;;;;;13.40;10.30;;;13.00;57.50;;;;;;5018676;28;20197;-54
2023/06/18 03:14:29;;;;;;;13.50;10.60;;;12.90;57.50;;;;;;5020159;28;20223;-54
2023/06/18 03:16:56;;;;;;;11.40;9.93;;;12.90;57.70;;;;;;5023390;28;20433;-61
2023/06/18 03:19:22;;;;;;;14.17;10.50;;;12.90;57.90;;;;;;5020620;28;20445;-57
2023/06/18 03:21:48;;;;;;;13.10;9.80;;;12.90;58.00;;;;;;5020104;28;20493;-55
2023/06/18 03:24:14;;;;;;;13.57;9.43;;;12.90;58.40;;;;;;5020597;28;20481;-55
2023/06/18 03:26:41;;;;;;;14.10;10.40;;;12.80;58.20;;;;;;5020527;28;20196;-57
2023/06/18 03:29:07;;;;;;;13.50;10.57;;;12.80;58.20;;;;;;5022568;28;20473;-55
2023/06/18 03:31:33;;;;;;;15.10;10.20;;;12.80;58.30;;;;;;5026617;28;20454;-58
2023/06/18 03:34:01;;;;;;;13.17;10.70;;;12.80;58.50;;;;;;5010797;28;20470;-57
2023/06/18 03:36:28;;;;;;;16.20;11.17;;;12.70;58.50;;;;;;5019934;28;20466;-58
2023/06/18 03:38:55;;;;;;;13.27;10.27;;;12.70;58.60;;;;;;5023770;28;20446;-55
2023/06/18 03:41:20;;;;;;;12.50;10.53;;;12.70;58.80;;;;;;5027373;28;21314;-56
2023/06/18 03:43:46;;;;;;;13.37;10.17;;;12.70;58.90;;;;;;5027323;28;20520;-56
2023/06/18 03:46:12;;;;;;;13.53;9.27;;;12.70;59.20;;;;;;5019115;28;20806;-57
2023/06/18 03:48:38;;;;;;;15.17;10.27;;;12.70;59.20;;;;;;5022926;28;20188;-57
2023/06/18 03:51:04;;;;;;;14.13;10.63;;;12.70;59.40;;;;;;5017696;28;20180;-55
2023/06/18 03:53:30;;;;;;;17.07;11.07;;;12.60;59.30;;;;;;5023234;28;20458;-56
2023/06/18 03:55:56;;;;;;;14.40;10.90;;;12.60;59.40;;;;;;5017642;28;20204;-58
2023/06/18 03:58:21;;;;;;;11.90;9.83;;;12.60;59.60;;;;;;5019119;28;20457;-58
2023/06/18 04:00:47;;;;;;;14.17;10.77;;;12.60;59.60;;;;;;5013831;28;20203;-55
2023/06/18 04:03:13;;;;;;;16.40;9.73;;;12.60;59.70;;;;;;5023140;28;20369;-56
2023/06/18 04:05:38;;;;;;;12.13;9.80;;;12.60;59.90;;;;;;5020927;28;20537;-57
2023/06/18 04:08:04;;;;;;;14.30;10.23;;;12.60;59.90;;;;;;5020714;28;20181;-56
2023/06/18 04:10:30;;;;;;;16.00;10.83;;;12.60;60.00;;;;;;5021913;28;20180;-57
2023/06/18 04:12:55;;;;;;;12.57;10.20;;;12.60;60.10;;;;;;5026264;28;20213;-56
2023/06/18 04:15:21;;;;;;;13.63;10.50;;;12.60;60.20;;;;;;5019167;28;20298;-55
2023/06/18 04:17:47;;;;;;;14.27;11.10;;;12.60;60.20;;;;;;5018017;28;20394;-55
2023/06/18 04:20:13;;;;;;;14.07;10.50;;;12.60;60.20;;;;;;5016884;28;20678;-57
2023/06/18 04:22:38;;;;;;;14.47;9.43;;;12.50;60.40;;;;;;5016016;28;20180;-57
2023/06/18 04:25:05;;;;;;;13.93;9.90;;;12.60;60.50;;;;;;5015475;28;20872;-55
2023/06/18 04:27:31;;;;;;;14.47;11.20;;;12.60;60.60;;;;;;5015761;28;20187;-56
2023/06/18 04:29:56;;;;;;;14.50;11.17;;;12.60;60.60;;;;;;5015792;28;20431;-56
2023/06/18 04:32:22;;;;;;;17.00;10.17;;;12.60;60.40;;;;;;5018011;28;20275;-57
2023/06/18 04:34:48;;;;;;;16.70;10.57;;;12.50;60.60;;;;;;5019008;28;20219;-56
2023/06/18 04:37:13;;;;;;;14.57;10.90;;;12.50;60.60;;;;;;5013068;28;20191;-56
2023/06/18 04:39:39;;;;;;;15.93;11.57;;;12.50;60.60;;;;;;5014547;28;20169;-60
2023/06/18 04:42:05;;;;;;;14.60;11.63;;;12.50;61.00;;;;;;5022727;28;20596;-56
2023/06/18 04:44:30;;;;;;;15.70;11.73;;;12.50;61.20;;;;;;5014621;28;20180;-55
2023/06/18 04:46:56;;;;;;;14.70;11.40;;;12.60;61.60;;;;;;5021202;28;20186;-58
2023/06/18 04:49:21;;;;;;;13.57;10.43;;;12.60;61.90;;;;;;5017541;28;20223;-55
2023/06/18 04:51:47;;;;;;;14.47;10.70;;;12.60;62.00;;;;;;5025556;28;20271;-55
2023/06/18 04:54:12;;;;;;;12.50;10.60;;;12.70;61.60;;;;;;5025125;28;20547;-54
2023/06/18 04:56:38;;;;;;;15.10;11.73;;;12.70;61.30;;;;;;5013442;28;20200;-55
2023/06/18 04:59:03;;;;;;;17.63;12.37;;;12.70;61.90;;;;;;5019010;28;20517;-55
2023/06/18 05:01:29;;;;;;;14.93;12.10;;;12.70;62.40;;;;;;5014577;28;20187;-55
2023/06/18 05:03:55;;;;;;;14.57;11.50;;;12.80;62.00;;;;;;5008479;28;20184;-55
2023/06/18 05:06:20;;;;;;;17.83;11.17;;;12.90;62.30;;;;;;5022309;28;20249;-55
2023/06/18 05:08:46;;;;;;;13.17;10.67;;;13.00;62.40;;;;;;5010906;28;20195;-55
2023/06/18 05:11:12;;;;;;;16.53;10.43;;;13.00;61.60;;;;;;5005395;28;20589;-55
2023/06/18 05:13:38;;;;;;;15.50;11.00;;;13.10;61.30;;;;;;5015141;28;21195;-57
2023/06/18 05:16:04;;;;;;;15.20;11.00;;;13.20;60.90;;;;;;5005112;28;20558;-55
2023/06/18 05:18:30;;;;;;;15.30;11.40;;;13.30;60.60;;;;;;5014683;28;20198;-56
2023/06/18 05:20:56;;;;;;;13.77;10.30;;;13.30;60.40;;;;;;5020494;28;20203;-56
2023/06/18 05:23:21;;;;;;;13.97;10.90;;;13.40;60.60;;;;;;5020120;28;20477;-57
2023/06/18 05:25:47;;;;;;;12.57;10.20;;;13.50;60.40;;;;;;5023985;28;20425;-55
2023/06/18 05:28:12;;;;;;;13.10;10.83;;;13.60;60.30;;;;;;5021396;28;20195;-56
2023/06/18 05:30:38;;;;;;;13.63;11.20;;;13.70;59.90;;;;;;5016329;28;20191;-57
2023/06/18 05:33:04;;;;;;;15.33;11.27;;;13.80;60.30;;;;;;5009298;28;20183;-58
2023/06/18 05:35:30;;;;;;;14.60;10.20;;;13.90;59.80;;;;;;5014422;28;20204;-54
2023/06/18 05:37:55;;;;;;;11.90;10.00;;;14.00;60.00;;;;;;5020103;28;20195;-53
2023/06/18 05:40:21;;;;;;;12.57;9.80;;;14.10;59.70;;;;;;5017949;28;20183;-56
2023/06/18 05:42:47;;;;;;;11.10;9.47;;;14.20;59.50;;;;;;5016162;28;20312;-55
2023/06/18 05:45:13;;;;;;;11.67;9.73;;;14.30;59.10;;;;;;5015405;28;20582;-54
2023/06/18 05:47:38;;;;;;;13.50;10.40;;;14.30;58.80;;;;;;5022114;28;20194;-56
2023/06/18 05:50:05;;;;;;;13.80;10.10;;;14.40;58.90;;;;;;5010000;28;20787;-55
2023/06/18 05:52:30;;;;;;;13.70;9.90;;;14.50;58.80;;;;;;5011672;28;20195;-55
2023/06/18 05:54:56;;;;;;;10.90;9.23;;;14.60;59.10;;;;;;5006637;28;20466;-55
2023/06/18 05:57:21;;;;;;;14.00;9.87;;;14.70;58.90;;;;;;5017232;28;20176;-57
2023/06/18 05:59:48;;;;;;;12.07;9.00;;;14.80;58.60;;;;;;5012020;28;20183;-55
2023/06/18 06:02:13;;;;;;;15.43;10.50;;;14.90;58.30;;;;;;5017102;28;20687;-56
2023/06/18 06:04:39;;;;;;;13.70;9.63;;;15.00;58.00;;;;;;5022499;28;20444;-55
2023/06/18 06:07:05;;;;;;;16.00;9.87;;;15.00;57.70;;;;;;5014425;28;20191;-57
2023/06/18 06:09:31;;;;;;;14.07;9.93;;;15.10;57.70;;;;;;5004769;28;20438;-56
2023/06/18 06:11:56;;;;;;;14.17;10.00;;;15.20;57.70;;;;;;5007754;28;20214;-55
2023/06/18 06:14:22;;;;;;;13.60;9.97;;;15.30;57.60;;;;;;5020808;28;20660;-57
2023/06/18 06:16:50;;;;;;;12.10;9.47;;;15.40;57.60;;;;;;5013018;28;20266;-57
2023/06/18 06:19:16;;;;;;;13.03;9.97;;;15.50;57.50;;;;;;5015639;28;20631;-55
2023/06/18 06:21:41;;;;;;;13.57;10.33;;;15.60;57.20;;;;;;5003324;28;20534;-57
2023/06/18 06:24:07;;;;;;;11.93;9.13;;;15.70;57.00;;;;;;5013283;28;20203;-55
2023/06/18 06:26:33;;;;;;;12.73;9.80;;;15.80;57.00;;;;;;5016085;28;20208;-54
2023/06/18 06:28:58;;;;;;;19.03;10.33;;;15.90;56.80;;;;;;5014226;28;20183;-55
2023/06/18 06:31:24;;;;;;;10.23;8.83;;;16.10;56.50;;;;;;5003064;28;20542;-54
2023/06/18 06:33:51;;;;;;;11.83;9.67;;;16.20;56.50;;;;;;5022909;28;20207;-57
2023/06/18 06:36:16;;;;;;;14.40;9.60;;;16.30;56.60;;;;;;5025082;28;20195;-55
2023/06/18 06:38:42;;;;;;;11.80;9.13;;;16.40;56.40;;;;;;5024750;28;20507;-54
2023/06/18 06:41:07;;;;;;;10.53;8.60;;;16.60;56.20;;;;;;5021986;28;20173;-53
2023/06/18 06:43:33;;;;;;;11.90;9.00;;;16.70;55.70;;;;;;5032711;28;20180;-53
2023/06/18 06:46:00;;;;;;;13.07;9.93;;;16.80;55.30;;;;;;5023995;28;20306;-53
2023/06/18 06:48:25;;;;;;;10.80;9.17;;;17.00;55.30;;;;;;5023766;28;20522;-54
2023/06/18 06:50:52;;;;;;;10.57;9.00;;;17.10;55.20;;;;;;5023271;28;20182;-55
2023/06/18 06:53:17;;;;;;;12.17;9.70;;;17.30;54.80;;;;;;5022317;28;20202;-56
2023/06/18 06:55:43;;;;;;;12.70;9.00;;;17.40;54.50;;;;;;5022820;28;20458;-61
2023/06/18 06:58:08;;;;;;;13.60;9.80;;;17.50;53.90;;;;;;5024522;28;20262;-54
2023/06/18 07:00:34;;;;;;;11.07;8.67;;;17.60;53.90;;;;;;5024095;28;20199;-54
2023/06/18 07:02:59;;;;;;;12.33;8.77;;;17.70;53.80;;;;;;5026325;28;20576;-54
2023/06/18 07:05:25;;;;;;;10.87;8.37;;;17.80;53.40;;;;;;5024956;28;20253;-56
2023/06/18 07:07:51;;;;;;;9.73;8.10;;;18.00;53.30;;;;;;5022935;28;20876;-52
2023/06/18 07:10:17;;;;;;;9.77;8.40;;;18.20;53.20;;;;;;5020644;28;20184;-54
2023/06/18 07:12:42;;;;;;;12.90;8.93;;;18.40;53.20;;;;;;5024199;28;20180;-53
2023/06/18 07:15:09;;;;;;;9.77;7.83;;;18.60;53.00;;;;;;5020913;28;20512;-55
2023/06/18 07:17:34;;;;;;;11.07;9.27;;;18.80;52.90;;;;;;5023161;28;20570;-53
2023/06/18 07:20:00;;;;;;;9.83;8.60;;;19.00;53.00;;;;;;5019032;28;20423;-55
2023/06/18 07:22:25;;;;;;;12.00;9.10;;;19.10;52.00;;;;;;5025869;28;20233;-55
2023/06/18 07:24:51;;;;;;;12.77;8.73;;;19.20;51.70;;;;;;5023324;28;20222;-54
2023/06/18 07:27:16;;;;;;;10.03;8.83;;;19.30;50.80;;;;;;5021448;28;20176;-54
2023/06/18 07:29:42;;;;;;;15.83;9.30;;;19.50;50.30;;;;;;5020949;28;20203;-55
2023/06/18 07:32:08;;;;;;;15.10;8.80;;;19.60;50.40;;;;;;5018705;28;20227;-56
2023/06/18 07:34:33;;;;;;;11.10;9.03;;;19.70;50.60;;;;;;5020434;28;20203;-56
2023/06/18 07:36:59;;;;;;;10.20;8.27;;;19.90;50.50;;;;;;5014551;28;20343;-57
2023/06/18 07:39:26;;;;;;;11.67;9.03;;;20.00;50.50;;;;;;5014919;28;20246;-58
2023/06/18 07:41:51;;;;;;;14.27;9.60;;;20.20;50.50;;;;;;5016783;28;20220;-54
2023/06/18 07:44:17;;;;;;;11.60;9.17;;;20.40;50.40;;;;;;5018183;28;21093;-56
2023/06/18 07:46:43;;;;;;;12.53;9.03;;;20.60;50.10;;;;;;5015836;28;20208;-57
2023/06/18 07:49:09;;;;;;;13.33;9.50;;;20.70;49.50;;;;;;5012564;28;20956;-54
2023/06/18 07:51:35;;;;;;;11.10;9.10;;;20.90;48.90;;;;;;5025885;28;20430;-55
2023/06/18 07:54:01;;;;;;;10.90;8.47;;;21.00;48.50;;;;;;5022143;28;20587;-58
2023/06/18 07:56:27;;;;;;;13.07;9.60;;;21.10;48.30;;;;;;5018050;28;20191;-57
2023/06/18 07:58:52;;;;;;;12.63;8.40;;;21.30;48.00;;;;;;5021180;28;20657;-56
2023/06/18 08:01:19;;;;;;;14.77;9.50;;;21.50;47.60;;;;;;5026452;28;20267;-56
2023/06/18 08:03:45;;;;;;;14.27;10.10;;;21.60;47.20;;;;;;5028207;28;20179;-56
2023/06/18 08:06:10;;;;;;;11.30;8.90;;;21.70;45.60;;;;;;5016261;28;20478;-59
2023/06/18 08:08:36;;;;;;;10.57;9.30;;;21.80;45.70;;;;;;5019245;28;20176;-55
2023/06/18 08:11:01;;;;;;;10.30;8.73;;;21.90;45.70;;;;;;5027806;28;20211;-55
2023/06/18 08:13:27;;;;;;;10.03;8.60;;;22.00;45.80;;;;;;5028984;28;20207;-56
2023/06/18 08:15:53;;;;;;;10.40;8.27;;;22.20;45.40;;;;;;5026047;28;20668;-55
2023/06/18 08:18:18;;;;;;;11.73;8.20;;;22.30;43.90;;;;;;5017037;28;20211;-57
2023/06/18 08:20:44;;;;;;;12.17;8.20;;;22.40;43.40;;;;;;5023195;28;20294;-57
2023/06/18 08:23:09;;;;;;;9.83;7.67;;;22.50;43.70;;;;;;5021058;28;20184;-56
2023/06/18 08:25:36;;;;;;;11.93;8.23;;;22.70;43.20;;;;;;5025069;28;20226;-57
2023/06/18 08:28:01;;;;;;;14.17;8.20;;;22.90;42.70;;;;;;5027941;28;21436;-57
2023/06/18 08:30:27;;;;;;;13.60;9.17;;;23.00;41.50;;;;;;5022768;28;20502;-55
2023/06/18 08:32:55;;;;;;;9.60;8.07;;;23.10;40.50;;;;;;5021562;28;20176;-60
2023/06/18 08:35:22;;;;;;;14.43;10.13;;;23.10;40.20;;;;;;5024301;28;20211;-57
2023/06/18 08:37:48;;;;;;;12.33;8.10;;;23.20;41.20;;;;;;5023041;28;20538;-57
2023/06/18 08:40:14;;;;;;;10.97;7.90;;;23.40;41.10;;;;;;5016222;28;20523;-59
2023/06/18 08:42:40;;;;;;;10.20;7.73;;;23.50;40.80;;;;;;5015853;28;20603;-56
2023/06/18 08:45:07;;;;;;;15.17;7.03;;;23.60;40.50;;;;;;5011707;28;20454;-55
2023/06/18 08:47:33;;;;;;;8.80;7.47;;;23.80;40.20;;;;;;5023882;28;20938;-56
2023/06/18 08:49:59;;;;;;;11.17;7.10;;;23.90;39.70;;;;;;5015650;28;20450;-56
2023/06/18 08:52:27;;;;;;;8.20;7.27;;;24.10;39.30;;;;;;5027407;28;21000;-57
2023/06/18 08:54:54;;;;;;;8.40;7.07;;;24.30;39.10;;;;;;5023227;28;20473;-57
2023/06/18 08:57:31;;;;;;;7.90;7.10;;;24.40;38.50;;;;;;5017131;28;21013;-57
2023/06/18 08:59:59;;;;;;;7.97;7.17;;;24.50;38.30;;;;;;5017039;28;20423;-56
2023/06/18 09:02:26;;;;;;;10.83;7.40;;;24.50;38.30;;;;;;5021353;28;21041;-56
2023/06/18 09:04:53;;;;;;;8.63;7.53;;;24.60;38.30;;;;;;5024000;28;21212;-57
2023/06/18 09:07:20;;;;;;;10.93;7.80;;;24.70;38.30;;;;;;5023895;28;20439;-55
2023/06/18 09:09:47;;;;;;;8.20;7.40;;;24.80;38.20;;;;;;5022513;28;20439;-56
2023/06/18 09:12:12;;;;;;;8.07;7.27;;;24.90;38.00;;;;;;5021457;28;20488;-57
2023/06/18 09:14:38;;;;;;;9.47;7.33;;;25.00;38.00;;;;;;5021534;28;20971;-57
2023/06/18 09:17:04;;;;;;;7.50;6.70;;;25.20;37.10;;;;;;5017819;28;20190;-55
2023/06/18 09:19:32;;;;;;;8.93;7.60;;;25.30;37.00;;;;;;5020472;28;20750;-56
2023/06/18 09:22:12;;;;;;;8.03;7.10;;;25.40;37.00;;;;;;5024993;28;20184;-56
2023/06/18 09:24:37;;;;;;;9.23;7.70;;;25.50;36.60;;;;;;5019928;28;20909;-55
2023/06/18 09:27:05;;;;;;;9.13;6.87;;;25.60;36.50;;;;;;5024253;28;20430;-55
2023/06/18 09:29:41;;;;;;;9.80;7.37;;;25.60;35.70;;;;;;5020462;28;20179;-56
2023/06/18 09:32:08;;;;;;;8.50;7.20;;;25.60;35.40;;;;;;5020213;28;20527;-54
2023/06/18 09:34:35;;;;;;;8.57;7.67;;;25.60;35.30;;;;;;5024346;28;20553;-55
2023/06/18 09:37:00;;;;;;;8.10;7.30;;;25.60;34.50;;;;;;5020798;28;20454;-56
2023/06/18 09:39:26;;;;;;;9.83;7.37;;;25.70;35.30;;;;;;5017143;28;20441;-56
2023/06/18 09:41:54;;;;;;;7.30;6.60;;;25.70;34.80;;;;;;5022684;28;20225;-58
2023/06/18 09:44:21;;;;;;;9.50;7.10;;;25.80;35.10;;;;;;5020334;28;20176;-58
2023/06/18 09:46:55;;;;;;;10.20;6.60;;;26.00;34.90;;;;;;5021896;28;20442;-56
2023/06/18 09:49:21;;;;;;;10.97;6.80;;;26.10;34.60;;;;;;5016365;28;20794;-57
2023/06/18 09:51:49;;;;;;;6.97;6.37;;;26.20;34.80;;;;;;5023671;28;20476;-58
2023/06/18 09:54:15;;;;;;;8.70;6.90;;;26.30;34.30;;;;;;5027229;28;20286;-58
2023/06/18 09:56:56;;;;;;;8.20;6.90;;;26.40;33.90;;;;;;5028682;28;20545;-57
2023/06/18 09:59:23;;;;;;;8.70;6.80;;;26.50;34.40;;;;;;5025976;28;20191;-57
2023/06/18 10:01:48;;;;;;;16.30;7.50;;;26.70;34.10;;;;;;5023917;28;20430;-58
2023/06/18 10:04:14;;;;;;;12.00;6.63;;;26.80;33.30;;;;;;5022294;28;20446;-56
2023/06/18 10:06:41;;;;;;;7.60;6.73;;;27.00;33.90;;;;;;5022849;28;20334;-57
2023/06/18 10:09:08;;;;;;;8.07;7.23;;;27.10;32.10;;;;;;5021997;28;20617;-59
2023/06/18 10:11:35;;;;;;;6.90;6.20;;;27.10;32.00;;;;;;5022897;28;20434;-57
2023/06/18 10:14:05;;;;;;;8.97;7.70;;;27.00;31.70;;;;;;5020592;28;20449;-58
2023/06/18 10:16:33;;;;;;;8.67;6.80;;;26.90;31.80;;;;;;5019094;28;20277;-57
2023/06/18 10:19:46;;;;;;;12.13;6.70;;;26.80;32.80;;;;;;5023208;28;20426;-56
2023/06/18 10:22:15;;;;;;;9.37;7.10;;;27.00;33.70;;;;;;5023598;28;20226;-57
2023/06/18 10:24:43;;;;;;;7.40;6.50;;;27.30;32.80;;;;;;5025144;28;20183;-56
2023/06/18 10:27:09;;;;;;;9.60;7.03;;;27.40;31.90;;;;;;5025629;28;20188;-58
2023/06/18 10:29:35;;;;;;;8.77;6.73;;;27.50;32.00;;;;;;5024094;28;20266;-55
2023/06/18 10:32:02;;;;;;;8.63;7.30;;;27.60;31.90;;;;;;5023132;28;20181;-54
2023/06/18 10:34:29;;;;;;;7.73;6.90;;;27.70;32.10;;;;;;5028012;28;20191;-52
2023/06/18 10:36:56;;;;;;;12.93;8.00;;;27.80;32.00;;;;;;5020697;28;20203;-53
2023/06/18 10:39:23;;;;;;;7.77;6.93;;;27.90;31.90;;;;;;5026692;28;20533;-57
2023/06/18 10:41:51;;;;;;;12.20;7.60;;;28.00;31.90;;;;;;5028124;28;20183;-55
2023/06/18 10:44:16;;;;;;;7.50;6.70;;;28.10;31.50;;;;;;5023308;28;20218;-55
2023/06/18 10:47:18;;;;;;;8.50;6.20;;;28.30;32.20;;;;;;5023271;28;20203;-53
2023/06/18 10:50:04;;;;;;;8.87;7.33;;;28.20;30.00;;;;;;5022003;28;20205;-53
2023/06/18 10:52:40;;;;;;;7.93;7.13;;;28.10;29.80;;;;;;5024776;28;20171;-56
2023/06/18 10:55:08;;;;;;;8.10;6.57;;;28.00;30.90;;;;;;5020827;28;20200;-56
2023/06/18 10:57:55;;;;;;;8.57;7.00;;;28.10;30.70;;;;;;5025061;28;20258;-56
2023/06/18 11:00:29;;;;;;;7.87;6.63;;;28.20;30.70;;;;;;5021029;28;20183;-55
2023/06/18 11:03:20;;;;;;;8.33;6.27;;;28.40;31.00;;;;;;5021163;28;20276;-56
2023/06/18 11:05:46;;;;;;;11.30;6.20;;;28.60;30.80;;;;;;5024347;28;20287;-55
2023/06/18 11:08:13;;;;;;;7.33;6.63;;;28.70;30.70;;;;;;5022941;28;20675;-54
2023/06/18 11:10:42;;;;;;;8.10;7.00;;;28.90;30.70;;;;;;5020279;28;20710;-56
2023/06/18 11:13:09;;;;;;;8.65;7.35;;;29.10;30.20;;;;;;5022414;28;20175;-55
2023/06/18 11:15:56;;;;;;;8.57;6.53;;;29.10;30.00;;;;;;5026849;28;20617;-56
2023/06/18 11:18:22;;;;;;;6.60;5.95;;;29.10;29.90;;;;;;5025176;28;20279;-56
2023/06/18 11:20:48;;;;;;;8.55;6.38;;;29.20;30.00;;;;;;5025635;28;20745;-56
2023/06/18 11:23:15;;;;;;;12.18;6.68;;;29.20;30.00;;;;;;5024865;28;20310;-56
2023/06/18 11:25:41;;;;;;;6.97;6.18;;;29.40;30.70;;;;;;5022223;28;20203;-53
2023/06/18 11:28:08;;;;;;;8.57;6.47;;;29.60;30.40;;;;;;5020885;28;20179;-54
2023/06/18 11:30:36;;;;;;;9.57;5.95;;;29.80;30.10;;;;;;5019194;28;20187;-54
2023/06/18 11:33:02;;;;;;;8.30;6.60;;;30.10;30.00;;;;;;5020359;28;20576;-54
2023/06/18 11:35:31;;;;;;;7.93;5.75;;;30.20;29.90;;;;;;5016732;28;20845;-53
2023/06/18 11:37:57;;;;;;;6.90;6.20;;;30.40;29.60;;;;;;5024011;28;20662;-54
2023/06/18 11:40:23;;;;;;;6.63;6.03;;;30.40;29.00;;;;;;5022662;28;20264;-54
2023/06/18 11:42:50;;;;;;;10.45;6.90;;;30.30;28.30;;;;;;5022039;28;20176;-55
2023/06/18 11:45:17;;;;;;;8.43;6.35;;;30.10;28.50;;;;;;5022081;28;20604;-55
2023/06/18 11:47:48;;;;;;;6.93;5.72;;;30.00;29.30;;;;;;5020372;28;20180;-54
2023/06/18 11:50:15;;;;;;;8.00;6.18;;;29.90;29.20;;;;;;5020300;28;20335;-54
2023/06/18 11:52:41;;;;;;;9.95;6.65;;;29.80;29.20;;;;;;5023294;28;20185;-55
2023/06/18 11:55:08;;;;;;;9.43;6.60;;;29.70;29.30;;;;;;5022968;28;20751;-55
2023/06/18 11:57:33;;;;;;;7.20;6.50;;;29.70;29.40;;;;;;5025946;28;20199;-53
2023/06/18 11:59:59;;;;;;;8.13;7.15;;;29.60;29.50;;;;;;5015516;28;21646;-55
2023/06/18 12:02:26;;;;;;;7.93;6.50;;;29.80;29.90;;;;;;5020251;28;20688;-52
2023/06/18 12:04:57;;;;;;;7.60;6.25;;;29.90;29.40;;;;;;5022327;28;20599;-51
2023/06/18 12:07:24;;;;;;;7.40;6.60;;;29.90;29.20;;;;;;5026089;28;20172;-50
2023/06/18 12:09:52;;;;;;;11.35;7.00;;;29.90;29.10;;;;;;5022652;28;20178;-50
2023/06/18 12:12:40;;;;;;;10.35;7.70;;;29.80;29.30;;;;;;5020289;28;20276;-51
2023/06/18 12:15:27;;;;;;;9.50;8.15;;;29.60;29.50;;;;;;5019506;28;20234;-53
2023/06/18 12:17:58;;;;;;;9.80;7.47;;;29.60;29.80;;;;;;5027586;28;20656;-50
2023/06/18 12:20:28;;;;;;;7.95;7.15;;;29.60;30.00;;;;;;5021717;28;20195;-52
2023/06/18 12:22:56;;;;;;;7.00;6.30;;;29.70;30.00;;;;;;5021760;28;20176;-52
2023/06/18 12:25:23;;;;;;;8.35;6.95;;;29.80;30.20;;;;;;5021800;28;20259;-53
2023/06/18 12:27:54;;;;;;;7.80;6.82;;;29.80;29.90;;;;;;5021367;28;20262;-50
2023/06/18 12:30:29;;;;;;;9.45;7.38;;;29.70;29.70;;;;;;5017103;28;20184;-56
2023/06/18 12:33:06;;;;;;;8.40;7.50;;;29.60;29.60;;;;;;5023848;28;20282;-54
2023/06/18 12:35:32;;;;;;;9.25;6.82;;;29.30;29.50;;;;;;5021091;28;20195;-55
2023/06/18 12:38:06;;;;;;;12.00;7.70;;;29.10;30.00;;;;;;5014565;28;20184;-56